createdAt,value
2024-04-24T00:01:40.096Z,36.47
2024-04-24T00:04:07.417Z,37.47
2024-04-24T00:06:34.735Z,36.47
2024-04-24T00:09:02.243Z,37.67
2024-04-24T00:11:29.555Z,41.57
2024-04-24T00:13:56.844Z,36.40
2024-04-24T00:16:24.882Z,35.37
2024-04-24T00:18:52.155Z,34.00
2024-04-24T00:21:19.403Z,34.03
2024-04-24T00:23:46.564Z,30.87
2024-04-24T00:26:13.798Z,30.33
2024-04-24T00:28:41.023Z,31.13
2024-04-24T00:31:08.216Z,33.00
2024-04-24T00:33:35.489Z,24.33
2024-04-24T00:36:02.955Z,28.77
2024-04-24T00:38:30.144Z,26.47
2024-04-24T00:40:57.354Z,28.03
2024-04-24T00:43:24.614Z,26.13
2024-04-24T00:45:51.847Z,28.33
2024-04-24T00:48:19.395Z,25.77
2024-04-24T00:50:46.707Z,31.37
2024-04-24T00:53:14.053Z,27.37
2024-04-24T00:55:41.633Z,29.27
2024-04-24T00:58:08.992Z,29.33
2024-04-24T01:00:38.338Z,26.40
2024-04-24T01:03:07.222Z,29.60
2024-04-24T01:05:34.705Z,28.73
2024-04-24T01:08:01.966Z,28.70
2024-04-24T01:10:29.202Z,26.90
2024-04-24T01:12:56.487Z,26.43
2024-04-24T01:15:23.840Z,25.00
2024-04-24T01:17:53.387Z,28.60
2024-04-24T01:20:23.742Z,24.60
2024-04-24T01:23:08.349Z,30.43
2024-04-24T01:25:39.403Z,28.57
2024-04-24T01:28:06.717Z,29.03
2024-04-24T01:30:33.998Z,27.40
2024-04-24T01:33:01.529Z,26.23
2024-04-24T01:35:28.907Z,28.50
2024-04-24T01:37:56.136Z,24.27
2024-04-24T01:40:23.763Z,22.47
2024-04-24T01:42:51.209Z,25.50
2024-04-24T01:45:18.416Z,26.30
2024-04-24T01:47:45.746Z,23.03
2024-04-24T01:50:13.128Z,26.70
2024-04-24T01:52:40.319Z,23.03
2024-04-24T01:55:08.542Z,25.13
2024-04-24T01:57:35.997Z,29.37
2024-04-24T02:00:03.414Z,23.63
2024-04-24T02:02:30.767Z,25.70
2024-04-24T02:04:58.024Z,22.27
2024-04-24T02:07:25.207Z,23.50
2024-04-24T02:09:52.494Z,26.13
2024-04-24T02:12:19.866Z,25.77
2024-04-24T02:14:47.112Z,24.73
2024-04-24T02:17:14.389Z,26.17
2024-04-24T02:19:43.367Z,29.30
2024-04-24T02:22:11.220Z,31.57
2024-04-24T02:24:57.348Z,34.53
2024-04-24T02:27:24.763Z,31.73
2024-04-24T02:29:56.329Z,34.17
2024-04-24T02:32:24.429Z,28.13
2024-04-24T02:34:51.824Z,28.07
2024-04-24T02:37:19.088Z,23.97
2024-04-24T02:39:46.328Z,28.03
2024-04-24T02:42:13.624Z,22.93
2024-04-24T02:44:40.823Z,28.30
2024-04-24T02:47:08.106Z,25.90
2024-04-24T02:49:35.347Z,24.70
2024-04-24T02:52:02.618Z,27.57
2024-04-24T02:54:29.823Z,26.47
2024-04-24T02:56:57.033Z,29.83
2024-04-24T02:59:24.356Z,27.43
2024-04-24T03:01:51.625Z,25.70
2024-04-24T03:04:18.891Z,24.03
2024-04-24T03:06:46.204Z,25.13
2024-04-24T03:09:13.656Z,23.10
2024-04-24T03:11:41.366Z,22.70
2024-04-24T03:14:09.050Z,23.00
2024-04-24T03:16:36.776Z,27.30
2024-04-24T03:19:04.030Z,23.27
2024-04-24T03:21:31.236Z,24.27
2024-04-24T03:23:58.500Z,23.73
2024-04-24T03:26:25.748Z,24.57
2024-04-24T03:28:53.143Z,25.03
2024-04-24T03:31:20.528Z,23.93
2024-04-24T03:33:47.754Z,25.07
2024-04-24T03:36:15.013Z,24.73
2024-04-24T03:38:45.252Z,24.33
2024-04-24T03:41:12.600Z,23.40
2024-04-24T03:43:39.855Z,21.90
2024-04-24T03:46:07.046Z,25.60
2024-04-24T03:48:34.320Z,23.87
2024-04-24T03:51:01.592Z,24.37
2024-04-24T03:53:28.849Z,26.43
2024-04-24T03:55:56.180Z,28.40
2024-04-24T03:58:23.421Z,26.73
2024-04-24T04:00:50.622Z,25.17
2024-04-24T04:03:17.869Z,27.23
2024-04-24T04:05:45.046Z,21.03
2024-04-24T04:08:12.328Z,20.93
2024-04-24T04:10:39.612Z,28.17
2024-04-24T04:13:06.880Z,24.07
2024-04-24T04:15:34.203Z,26.90
2024-04-24T04:18:01.646Z,27.43
2024-04-24T04:20:29.008Z,28.27
2024-04-24T04:23:01.819Z,31.10
2024-04-24T04:25:29.583Z,25.30
2024-04-24T04:27:58.786Z,27.10
2024-04-24T04:30:26.165Z,27.67
2024-04-24T04:32:53.566Z,24.60
2024-04-24T04:35:20.968Z,32.80
2024-04-24T04:37:48.235Z,35.13
2024-04-24T04:40:15.605Z,27.80
2024-04-24T04:42:44.041Z,25.93
2024-04-24T04:45:11.214Z,27.50
2024-04-24T04:47:38.557Z,28.63
2024-04-24T04:50:06.152Z,30.60
2024-04-24T04:52:33.431Z,25.10
2024-04-24T04:55:03.786Z,31.90
2024-04-24T04:57:31.192Z,27.37
2024-04-24T04:59:58.459Z,30.10
2024-04-24T05:02:25.785Z,23.80
2024-04-24T05:04:53.155Z,27.23
2024-04-24T05:07:20.396Z,27.60
2024-04-24T05:09:47.604Z,35.90
2024-04-24T05:12:16.250Z,26.10
2024-04-24T05:14:43.656Z,32.40
2024-04-24T05:17:11.010Z,26.03
2024-04-24T05:19:38.377Z,30.83
2024-04-24T05:22:05.645Z,33.23
2024-04-24T05:24:32.879Z,28.17
2024-04-24T05:27:18.832Z,26.13
2024-04-24T05:29:46.880Z,25.27
2024-04-24T05:32:14.646Z,27.93
2024-04-24T05:34:41.873Z,29.43
2024-04-24T05:37:12.898Z,29.93
2024-04-24T05:39:40.720Z,27.57
2024-04-24T05:42:07.921Z,34.30
2024-04-24T05:44:35.623Z,27.70
2024-04-24T05:47:04.297Z,29.90
2024-04-24T05:49:31.694Z,30.97
2024-04-24T05:51:59.056Z,25.63
2024-04-24T05:54:26.763Z,27.23
2024-04-24T05:56:53.966Z,23.93
2024-04-24T05:59:21.306Z,23.47
2024-04-24T06:01:48.957Z,24.37
2024-04-24T06:04:16.220Z,21.17
2024-04-24T06:06:43.501Z,23.00
2024-04-24T06:09:10.708Z,26.60
2024-04-24T06:11:38.039Z,27.47
2024-04-24T06:14:05.369Z,22.23
2024-04-24T06:16:32.706Z,22.97
2024-04-24T06:19:00.067Z,19.43
2024-04-24T06:21:27.376Z,22.93
2024-04-24T06:23:54.639Z,28.07
2024-04-24T06:26:23.045Z,21.77
2024-04-24T06:28:50.361Z,24.80
2024-04-24T06:31:17.552Z,25.07
2024-04-24T06:33:44.794Z,29.00
2024-04-24T06:36:12.040Z,23.50
2024-04-24T06:38:39.237Z,23.13
2024-04-24T06:41:06.573Z,24.83
2024-04-24T06:43:33.797Z,22.87
2024-04-24T06:46:01.014Z,22.43
2024-04-24T06:48:28.342Z,26.77
2024-04-24T06:50:59.390Z,22.27
2024-04-24T06:53:26.854Z,26.93
2024-04-24T06:55:54.410Z,27.90
2024-04-24T06:58:21.886Z,24.47
2024-04-24T07:00:49.241Z,31.07
2024-04-24T07:03:18.200Z,21.20
2024-04-24T07:05:45.493Z,20.70
2024-04-24T07:08:13.164Z,26.00
2024-04-24T07:10:40.786Z,19.90
2024-04-24T07:13:08.138Z,20.40
2024-04-24T07:15:35.384Z,20.43
2024-04-24T07:18:02.816Z,20.90
2024-04-24T07:20:30.210Z,25.60
2024-04-24T07:22:58.011Z,18.43
2024-04-24T07:25:25.496Z,19.03
2024-04-24T07:27:52.743Z,16.73
2024-04-24T07:30:20.415Z,17.47
2024-04-24T07:32:47.650Z,25.07
2024-04-24T07:35:15.960Z,23.50
2024-04-24T07:37:43.458Z,19.50
2024-04-24T07:40:11.430Z,18.70
2024-04-24T07:42:39.860Z,24.80
2024-04-24T07:45:08.407Z,17.73
2024-04-24T07:47:35.765Z,18.10
2024-04-24T07:50:03.322Z,19.40
2024-04-24T07:52:30.686Z,21.53
2024-04-24T07:54:57.982Z,18.27
2024-04-24T07:57:25.194Z,18.87
2024-04-24T07:59:52.395Z,17.90
2024-04-24T08:02:19.661Z,16.37
2024-04-24T08:04:47.200Z,16.63
2024-04-24T08:07:14.409Z,19.97
2024-04-24T08:09:41.835Z,21.77
2024-04-24T08:12:10.397Z,18.53
2024-04-24T08:14:38.098Z,18.30
2024-04-24T08:17:05.264Z,17.60
2024-04-24T08:19:32.450Z,21.50
2024-04-24T08:22:00.586Z,19.43
2024-04-24T08:24:27.906Z,17.37
2024-04-24T08:26:55.179Z,14.80
2024-04-24T08:29:22.438Z,16.37
2024-04-24T08:31:49.945Z,14.87
2024-04-24T08:34:17.155Z,13.27
2024-04-24T08:36:45.704Z,16.23
2024-04-24T08:39:16.153Z,17.37
2024-04-24T08:41:44.333Z,18.10
2024-04-24T08:44:12.535Z,17.50
2024-04-24T08:46:40.913Z,13.87
2024-04-24T08:49:09.034Z,12.10
2024-04-24T08:51:43.087Z,11.27
2024-04-24T08:54:13.807Z,11.13
2024-04-24T08:56:43.066Z,13.77
2024-04-24T08:59:17.053Z,12.30
2024-04-24T09:01:47.853Z,13.90
2024-04-24T09:04:15.934Z,11.17
2024-04-24T09:06:43.478Z,14.77
2024-04-24T09:09:10.801Z,12.43
2024-04-24T09:11:38.554Z,15.13
2024-04-24T09:14:07.564Z,12.23
2024-04-24T09:16:37.150Z,12.87
2024-04-24T09:19:05.524Z,11.53
2024-04-24T09:21:33.297Z,10.27
2024-04-24T09:24:00.775Z,10.40
2024-04-24T09:26:28.362Z,15.47
2024-04-24T09:28:55.938Z,10.60
2024-04-24T09:31:24.503Z,10.83
2024-04-24T09:33:52.108Z,14.63
2024-04-24T09:36:19.596Z,12.67
2024-04-24T09:38:49.854Z,12.37
2024-04-24T09:41:17.083Z,12.87
2024-04-24T09:43:44.340Z,11.13
2024-04-24T09:46:11.665Z,12.80
2024-04-24T09:48:39.083Z,13.80
2024-04-24T09:51:11.137Z,14.17
2024-04-24T09:53:38.735Z,12.63
2024-04-24T09:56:09.815Z,11.33
2024-04-24T09:58:37.412Z,10.50
2024-04-24T10:01:04.839Z,12.57
2024-04-24T10:03:35.114Z,13.40
2024-04-24T10:06:03.273Z,12.57
2024-04-24T10:08:34.463Z,14.23
2024-04-24T10:11:03.502Z,11.67
2024-04-24T10:13:34.203Z,12.67
2024-04-24T10:16:03.249Z,13.20
2024-04-24T10:18:30.799Z,10.53
2024-04-24T10:20:59.579Z,12.27
2024-04-24T10:23:28.899Z,16.53
2024-04-24T10:25:57.245Z,14.13
2024-04-24T10:28:25.956Z,10.53
2024-04-24T10:30:53.839Z,11.23
2024-04-24T10:33:21.726Z,10.63
2024-04-24T10:35:49.086Z,12.30
2024-04-24T10:38:19.880Z,10.67
2024-04-24T10:40:48.075Z,10.43
2024-04-24T10:43:18.736Z,9.10
2024-04-24T10:45:46.315Z,9.93
2024-04-24T10:48:14.141Z,10.10
2024-04-24T10:50:42.356Z,11.37
2024-04-24T10:53:13.702Z,10.87
2024-04-24T10:55:52.854Z,11.83
2024-04-24T10:58:24.372Z,12.53
2024-04-24T11:00:51.726Z,11.20
2024-04-24T11:03:19.494Z,11.17
2024-04-24T11:05:47.031Z,12.88
2024-04-24T11:08:20.652Z,15.77
2024-04-24T11:10:54.793Z,12.30
2024-04-24T11:13:22.308Z,12.90
2024-04-24T11:16:05.966Z,14.30
2024-04-24T11:18:38.786Z,15.77
2024-04-24T11:21:06.112Z,10.90
2024-04-24T11:23:34.461Z,11.93
2024-04-24T11:26:01.909Z,13.33
2024-04-24T11:28:29.714Z,10.03
2024-04-24T11:30:56.928Z,12.37
2024-04-24T11:33:24.766Z,11.00
2024-04-24T11:35:53.016Z,9.03
2024-04-24T11:38:21.202Z,11.00
2024-04-24T11:40:48.518Z,12.80
2024-04-24T11:43:16.239Z,10.93
2024-04-24T11:45:43.509Z,15.20
2024-04-24T11:48:10.848Z,10.57
2024-04-24T11:50:38.448Z,11.03
2024-04-24T11:53:05.903Z,12.53
2024-04-24T11:55:36.870Z,9.60
2024-04-24T11:58:13.676Z,12.17
2024-04-24T12:00:41.450Z,11.63
2024-04-24T12:03:09.684Z,11.90
2024-04-24T12:05:37.309Z,13.47
2024-04-24T12:08:04.757Z,10.87
2024-04-24T12:10:32.180Z,10.47
2024-04-24T12:13:00.603Z,15.27
2024-04-24T12:15:27.831Z,11.83
2024-04-24T12:17:55.156Z,11.07
2024-04-24T12:20:22.562Z,9.53
2024-04-24T12:22:49.896Z,13.77
2024-04-24T12:25:17.161Z,12.77
2024-04-24T12:27:44.427Z,10.98
2024-04-24T12:30:11.769Z,12.20
2024-04-24T12:32:39.302Z,12.82
2024-04-24T12:35:06.908Z,10.15
2024-04-24T12:37:34.795Z,11.00
2024-04-24T12:40:02.722Z,11.37
2024-04-24T12:42:30.023Z,11.73
2024-04-24T12:44:57.231Z,12.55
2024-04-24T12:47:24.490Z,14.43
2024-04-24T12:49:52.724Z,13.40
2024-04-24T12:52:19.972Z,11.88
2024-04-24T12:54:47.953Z,14.00
2024-04-24T12:57:16.593Z,12.35
2024-04-24T12:59:43.804Z,11.75
2024-04-24T13:02:11.098Z,11.85
2024-04-24T13:04:38.504Z,14.73
2024-04-24T13:07:05.801Z,13.98
2024-04-24T13:09:33.289Z,11.85
2024-04-24T13:12:01.177Z,10.93
2024-04-24T13:14:28.668Z,11.55
2024-04-24T13:16:57.399Z,10.80
2024-04-24T13:19:24.787Z,12.20
2024-04-24T13:21:52.240Z,13.88
2024-04-24T13:24:19.511Z,11.13
2024-04-24T13:26:46.745Z,13.73
2024-04-24T13:29:14.377Z,11.35
2024-04-24T13:31:41.642Z,15.35
2024-04-24T13:34:08.953Z,12.48
2024-04-24T13:36:36.136Z,14.15
2024-04-24T13:39:03.733Z,13.02
2024-04-24T13:41:36.273Z,16.70
2024-04-24T13:44:05.646Z,11.60
2024-04-24T13:46:32.866Z,15.07
2024-04-24T13:49:00.133Z,13.50
2024-04-24T13:51:27.506Z,18.05
2024-04-24T13:53:54.716Z,14.20
2024-04-24T13:56:21.933Z,12.50
2024-04-24T13:58:49.838Z,11.37
2024-04-24T14:01:19.374Z,10.23
2024-04-24T14:03:46.750Z,12.03
2024-04-24T14:06:14.077Z,11.93
2024-04-24T14:08:41.392Z,11.13
2024-04-24T14:11:15.525Z,18.02
2024-04-24T14:13:42.986Z,11.80
2024-04-24T14:16:15.102Z,12.93
2024-04-24T14:18:42.613Z,12.23
2024-04-24T14:21:09.909Z,11.53
2024-04-24T14:23:38.337Z,13.73
2024-04-24T14:26:05.655Z,11.18
2024-04-24T14:28:32.891Z,13.67
2024-04-24T14:31:01.663Z,13.05
2024-04-24T14:33:28.952Z,11.77
2024-04-24T14:35:56.297Z,12.18
2024-04-24T14:38:26.543Z,12.20
2024-04-24T14:40:56.687Z,18.42
2024-04-24T14:43:23.994Z,11.10
2024-04-24T14:45:51.375Z,11.82
2024-04-24T14:48:18.725Z,11.20
2024-04-24T14:50:46.964Z,11.93
2024-04-24T14:53:14.282Z,11.98
2024-04-24T14:55:42.697Z,12.45
2024-04-24T14:58:10.126Z,13.10
2024-04-24T15:00:37.324Z,13.60
2024-04-24T15:03:04.733Z,10.68
2024-04-24T15:05:32.076Z,11.52
2024-04-24T15:07:59.396Z,14.17
2024-04-24T15:10:26.613Z,14.52
2024-04-24T15:12:53.838Z,12.98
2024-04-24T15:15:21.165Z,12.07
2024-04-24T15:17:48.493Z,14.13
2024-04-24T15:20:15.864Z,15.10
2024-04-24T15:22:43.941Z,16.42
2024-04-24T15:25:11.201Z,14.00
2024-04-24T15:27:40.700Z,11.65
2024-04-24T15:30:09.646Z,11.43
2024-04-24T15:32:37.182Z,9.88
2024-04-24T15:35:04.575Z,13.98
2024-04-24T15:37:31.790Z,11.13
2024-04-24T15:39:59.093Z,15.18
2024-04-24T15:42:26.296Z,11.95
2024-04-24T15:44:53.517Z,12.27
2024-04-24T15:47:21.203Z,11.90
2024-04-24T15:49:48.549Z,12.07
2024-04-24T15:52:16.039Z,12.97
2024-04-24T15:54:43.251Z,15.77
2024-04-24T15:57:12.067Z,12.33
2024-04-24T15:59:39.313Z,9.90
2024-04-24T16:02:06.621Z,12.17
2024-04-24T16:04:33.884Z,13.43
2024-04-24T16:07:01.141Z,15.40
2024-04-24T16:09:28.363Z,13.83
2024-04-24T16:11:55.556Z,10.60
2024-04-24T16:14:22.793Z,12.70
2024-04-24T16:16:49.986Z,13.30
2024-04-24T16:19:17.287Z,14.10
2024-04-24T16:21:44.516Z,11.97
2024-04-24T16:24:12.200Z,15.33
2024-04-24T16:26:39.552Z,12.03
2024-04-24T16:29:06.802Z,13.20
2024-04-24T16:31:34.126Z,13.67
2024-04-24T16:34:01.371Z,14.93
2024-04-24T16:36:28.695Z,21.07
2024-04-24T16:38:55.881Z,19.17
2024-04-24T16:41:23.197Z,26.73
2024-04-24T16:43:53.194Z,19.17
2024-04-24T16:46:20.963Z,17.20
2024-04-24T16:48:48.418Z,21.13
2024-04-24T16:51:15.708Z,20.90
2024-04-24T16:53:46.622Z,15.97
2024-04-24T16:56:15.598Z,19.97
2024-04-24T16:58:42.863Z,28.87
2024-04-24T17:01:10.181Z,21.40
2024-04-24T17:03:39.685Z,21.77
2024-04-24T17:06:06.869Z,20.47
2024-04-24T17:08:34.139Z,16.17
2024-04-24T17:11:01.400Z,17.63
2024-04-24T17:13:28.724Z,17.27
2024-04-24T17:15:55.934Z,12.60
2024-04-24T17:18:23.676Z,14.17
2024-04-24T17:20:51.175Z,10.93
2024-04-24T17:23:18.801Z,13.90
2024-04-24T17:25:45.999Z,13.87
2024-04-24T17:28:13.245Z,11.97
2024-04-24T17:30:40.562Z,12.37
2024-04-24T17:33:07.873Z,17.00
2024-04-24T17:35:35.111Z,16.80
2024-04-24T17:38:02.401Z,12.43
2024-04-24T17:40:32.610Z,16.17
2024-04-24T17:42:59.891Z,17.60
2024-04-24T17:45:27.888Z,30.50
2024-04-24T17:47:55.257Z,20.17
2024-04-24T17:50:24.823Z,20.83
2024-04-24T17:52:52.175Z,20.53
2024-04-24T17:55:19.568Z,25.47
2024-04-24T17:57:46.931Z,27.73
2024-04-24T18:00:14.311Z,35.47
2024-04-24T18:02:42.678Z,54.63
2024-04-24T18:05:09.922Z,110.60
2024-04-24T18:07:37.180Z,75.10
2024-04-24T18:10:04.924Z,63.27
2024-04-24T18:12:32.140Z,39.77
2024-04-24T18:14:59.356Z,38.97
2024-04-24T18:17:26.631Z,40.57
2024-04-24T18:19:53.849Z,27.00
2024-04-24T18:22:21.050Z,31.70
2024-04-24T18:24:48.401Z,37.97
2024-04-24T18:27:15.647Z,40.90
2024-04-24T18:29:42.937Z,35.53
2024-04-24T18:32:10.458Z,29.67
2024-04-24T18:34:38.711Z,53.37
2024-04-24T18:37:05.968Z,44.03
2024-04-24T18:39:33.318Z,45.40
2024-04-24T18:42:00.799Z,61.97
2024-04-24T18:44:28.202Z,79.53
2024-04-24T18:46:55.563Z,102.03
2024-04-24T18:49:22.876Z,133.63
2024-04-24T18:51:50.377Z,197.43
2024-04-24T18:54:17.628Z,206.67
2024-04-24T18:56:44.942Z,312.30
2024-04-24T18:59:12.270Z,242.43
2024-04-24T19:01:39.499Z,181.10
2024-04-24T19:04:13.176Z,140.00
2024-04-24T19:06:40.766Z,90.80
2024-04-24T19:09:09.188Z,92.37
2024-04-24T19:11:36.481Z,94.03
2024-04-24T19:14:03.889Z,87.53
2024-04-24T19:16:31.181Z,99.93
2024-04-24T19:18:58.386Z,111.10
2024-04-24T19:21:25.578Z,143.87
2024-04-24T19:23:52.773Z,171.60
2024-04-24T19:26:20.189Z,166.60
2024-04-24T19:28:47.413Z,190.73
2024-04-24T19:31:23.729Z,197.00
2024-04-24T19:33:58.592Z,167.33
2024-04-24T19:36:27.246Z,159.07
2024-04-24T19:38:54.518Z,236.63
2024-04-24T19:41:22.111Z,207.57
2024-04-24T19:43:49.354Z,197.17
2024-04-24T19:46:17.426Z,179.03
2024-04-24T19:48:44.964Z,167.07
2024-04-24T19:51:16.132Z,154.57
2024-04-24T19:53:43.645Z,135.00
2024-04-24T19:56:10.957Z,145.60
2024-04-24T19:58:38.388Z,142.40
2024-04-24T20:01:10.320Z,133.43
2024-04-24T20:03:38.288Z,176.67
2024-04-24T20:06:06.306Z,231.50
2024-04-24T20:08:34.032Z,256.77
2024-04-24T20:11:08.050Z,293.87
2024-04-24T20:13:36.534Z,264.67
2024-04-24T20:16:04.151Z,220.33
2024-04-24T20:18:31.582Z,205.63
2024-04-24T20:20:58.878Z,195.20
2024-04-24T20:23:26.171Z,187.17
2024-04-24T20:25:53.424Z,183.10
2024-04-24T20:28:20.666Z,196.77
2024-04-24T20:30:47.893Z,186.73
2024-04-24T20:33:15.329Z,179.03
2024-04-24T20:35:42.823Z,185.23
2024-04-24T20:38:12.350Z,187.17
2024-04-24T20:40:40.086Z,187.77
2024-04-24T20:43:07.383Z,183.40
2024-04-24T20:45:34.614Z,195.77
2024-04-24T20:48:03.128Z,192.60
2024-04-24T20:50:30.452Z,197.93
2024-04-24T20:52:57.707Z,218.57
2024-04-24T20:55:24.969Z,262.20
2024-04-24T20:57:52.165Z,316.60
2024-04-24T21:00:19.440Z,331.63
2024-04-24T21:02:46.796Z,419.30
2024-04-24T21:05:14.115Z,483.57
2024-04-24T21:07:41.372Z,487.53
2024-04-24T21:10:08.923Z,469.23
2024-04-24T21:12:36.203Z,514.97
2024-04-24T21:15:03.451Z,485.40
2024-04-24T21:17:30.927Z,466.23
2024-04-24T21:19:58.178Z,419.90
2024-04-24T21:22:25.457Z,440.90
2024-04-24T21:24:52.786Z,409.77
2024-04-24T21:27:20.056Z,432.27
2024-04-24T21:29:47.258Z,424.27
2024-04-24T21:32:14.600Z,447.63
2024-04-24T21:34:42.030Z,426.23
2024-04-24T21:37:09.359Z,440.83
2024-04-24T21:39:36.659Z,455.53
2024-04-24T21:42:03.877Z,447.13
2024-04-24T21:44:31.110Z,452.73
2024-04-24T21:46:58.290Z,445.63
2024-04-24T21:49:25.754Z,434.03
2024-04-24T21:51:52.932Z,427.53
2024-04-24T21:54:20.137Z,431.80
2024-04-24T21:56:47.420Z,423.90
2024-04-24T21:59:14.714Z,440.30
2024-04-24T22:01:41.985Z,414.37
2024-04-24T22:04:09.519Z,420.17
2024-04-24T22:06:38.829Z,423.30
2024-04-24T22:09:09.048Z,410.40
2024-04-24T22:11:36.527Z,398.80
2024-04-24T22:14:03.916Z,389.97
2024-04-24T22:16:31.318Z,372.53
2024-04-24T22:18:59.569Z,370.57
2024-04-24T22:21:29.376Z,356.43
2024-04-24T22:23:57.726Z,351.97
2024-04-24T22:26:27.436Z,364.60
2024-04-24T22:28:54.740Z,343.93
2024-04-24T22:31:22.327Z,318.97
2024-04-24T22:33:49.993Z,323.17
2024-04-24T22:36:17.244Z,311.87
2024-04-24T22:38:44.452Z,297.77
2024-04-24T22:41:11.994Z,286.57
2024-04-24T22:43:42.049Z,298.87
2024-04-24T22:46:09.275Z,308.00
2024-04-24T22:48:36.932Z,335.17
2024-04-24T22:51:04.424Z,327.67
2024-04-24T22:53:31.658Z,307.37
2024-04-24T22:55:58.865Z,276.97
2024-04-24T22:58:26.059Z,274.97
2024-04-24T23:00:53.461Z,265.10
2024-04-24T23:03:20.818Z,252.77
2024-04-24T23:05:48.132Z,229.50
2024-04-24T23:08:15.460Z,227.17
2024-04-24T23:10:42.791Z,209.30
2024-04-24T23:13:10.035Z,178.93
2024-04-24T23:15:37.250Z,179.20
2024-04-24T23:18:04.650Z,176.77
2024-04-24T23:20:33.584Z,202.10
2024-04-24T23:23:02.287Z,188.67
2024-04-24T23:25:30.069Z,198.57
2024-04-24T23:27:57.327Z,252.03
2024-04-24T23:30:24.526Z,238.13
2024-04-24T23:32:51.773Z,263.07
2024-04-24T23:35:19.068Z,294.73
2024-04-24T23:37:46.259Z,304.67
2024-04-24T23:40:13.459Z,280.30
2024-04-24T23:42:42.082Z,262.23
2024-04-24T23:45:09.300Z,251.43
2024-04-24T23:47:36.646Z,218.70
2024-04-24T23:50:03.988Z,211.90
2024-04-24T23:52:31.242Z,188.37
2024-04-24T23:55:01.757Z,168.30
2024-04-24T23:57:29.197Z,163.07
2024-04-24T23:59:56.418Z,160.33
